createdAt,value
2022-10-14T00:01:27.213Z,24.10
2022-10-14T00:04:06.127Z,27.00
2022-10-14T00:06:34.892Z,26.90
2022-10-14T00:09:07.494Z,26.30
2022-10-14T00:11:37.395Z,23.60
2022-10-14T00:14:13.724Z,25.90
2022-10-14T00:16:44.585Z,26.20
2022-10-14T00:21:44.720Z,26.20
2022-10-14T00:24:16.119Z,25.20
2022-10-14T00:29:18.750Z,23.30
2022-10-14T00:31:47.454Z,26.00
2022-10-14T00:34:16.848Z,22.50
2022-10-14T00:36:45.517Z,28.60
2022-10-14T00:39:17.393Z,27.20
2022-10-14T00:41:45.687Z,24.60
2022-10-14T00:44:13.597Z,29.70
2022-10-14T00:46:47.201Z,22.70
2022-10-14T00:49:18.933Z,23.60
2022-10-14T00:51:51.881Z,21.30
2022-10-14T00:54:24.558Z,22.90
2022-10-14T00:56:53.280Z,23.10
2022-10-14T00:59:21.725Z,25.40
2022-10-14T01:01:49.650Z,19.40
2022-10-14T01:04:17.865Z,25.30
2022-10-14T01:07:08.957Z,19.80
2022-10-14T01:09:51.079Z,19.80
2022-10-14T01:12:29.005Z,17.50
2022-10-14T01:15:05.085Z,17.30
2022-10-14T01:17:46.275Z,18.50
2022-10-14T01:20:38.147Z,21.60
2022-10-14T01:23:21.250Z,20.30
2022-10-14T01:26:10.944Z,18.60
2022-10-14T01:29:14.958Z,22.60
2022-10-14T01:31:48.859Z,22.60
2022-10-14T01:34:27.383Z,20.40
2022-10-14T01:37:01.157Z,20.40
2022-10-14T01:39:41.649Z,20.30
2022-10-14T01:42:15.742Z,18.70
2022-10-14T01:44:50.283Z,16.50
2022-10-14T01:47:21.177Z,20.80
2022-10-14T01:49:58.933Z,16.80
2022-10-14T01:52:33.855Z,21.00
2022-10-14T01:55:06.609Z,22.80
2022-10-14T01:57:38.603Z,17.20
2022-10-14T02:00:07.932Z,20.40
2022-10-14T02:02:42.312Z,16.80
2022-10-14T02:05:19.551Z,21.00
2022-10-14T02:07:58.609Z,18.10
2022-10-14T02:11:15.512Z,18.50
2022-10-14T02:13:55.597Z,19.10
2022-10-14T02:16:40.923Z,18.10
2022-10-14T02:19:23.070Z,17.90
2022-10-14T02:22:08.549Z,16.70
2022-10-14T02:24:42.491Z,19.10
2022-10-14T02:27:18.514Z,20.20
2022-10-14T02:29:48.538Z,20.50
2022-10-14T02:32:20.189Z,19.60
2022-10-14T02:34:54.980Z,18.00
2022-10-14T02:37:25.746Z,19.50
2022-10-14T02:40:18.101Z,18.10
2022-10-14T02:42:46.199Z,19.60
2022-10-14T02:45:15.870Z,22.20
2022-10-14T02:47:46.383Z,23.50
2022-10-14T02:50:14.949Z,19.00
2022-10-14T02:52:42.749Z,22.70
2022-10-14T02:55:11.118Z,17.00
2022-10-14T02:57:39.072Z,19.30
2022-10-14T03:00:07.755Z,19.80
2022-10-14T03:02:35.681Z,17.50
2022-10-14T03:05:04.992Z,23.60
2022-10-14T03:07:32.977Z,20.10
2022-10-14T03:10:03.546Z,24.00
2022-10-14T03:12:32.643Z,25.90
2022-10-14T03:15:01.124Z,18.60
2022-10-14T03:17:30.728Z,19.50
2022-10-14T03:20:04.303Z,17.50
2022-10-14T03:22:33.964Z,17.20
2022-10-14T03:25:01.886Z,21.90
2022-10-14T03:27:43.925Z,41.80
2022-10-14T03:30:15.494Z,59.30
2022-10-14T03:32:53.916Z,90.30
2022-10-14T03:35:30.538Z,89.50
2022-10-14T03:38:02.199Z,80.60
2022-10-14T03:40:31.409Z,68.50
2022-10-14T03:43:01.508Z,45.60
2022-10-14T03:45:34.903Z,35.00
2022-10-14T03:48:03.693Z,29.10
2022-10-14T03:50:31.780Z,34.40
2022-10-14T03:53:00.447Z,33.70
2022-10-14T03:55:33.922Z,31.70
2022-10-14T03:58:02.114Z,40.60
2022-10-14T04:00:30.175Z,41.00
2022-10-14T04:03:26.318Z,33.30
2022-10-14T04:05:55.675Z,44.40
2022-10-14T04:08:24.510Z,47.80
2022-10-14T04:11:02.238Z,44.80
2022-10-14T04:13:33.244Z,40.40
2022-10-14T04:16:09.904Z,44.80
2022-10-14T04:18:45.056Z,29.50
2022-10-14T04:21:13.403Z,32.30
2022-10-14T04:23:42.812Z,27.70
2022-10-14T04:26:15.720Z,24.80
2022-10-14T04:28:44.276Z,24.60
2022-10-14T04:31:20.462Z,17.80
2022-10-14T04:33:55.803Z,17.20
2022-10-14T04:36:28.877Z,16.10
2022-10-14T04:38:57.582Z,19.90
2022-10-14T04:41:25.419Z,21.90
2022-10-14T04:43:53.617Z,17.90
2022-10-14T04:46:31.487Z,20.20
2022-10-14T04:48:59.491Z,21.60
2022-10-14T04:51:30.532Z,16.90
2022-10-14T04:54:18.627Z,20.80
2022-10-14T04:56:51.756Z,16.00
2022-10-14T04:59:20.682Z,21.30
2022-10-14T05:02:10.646Z,18.30
2022-10-14T05:04:48.018Z,15.90
2022-10-14T05:07:16.708Z,18.50
2022-10-14T05:09:48.641Z,21.90
2022-10-14T05:12:35.477Z,14.40
2022-10-14T05:15:05.536Z,16.30
2022-10-14T05:17:39.717Z,13.00
2022-10-14T05:20:09.315Z,19.00
2022-10-14T05:22:38.532Z,22.40
2022-10-14T05:25:06.963Z,18.80
2022-10-14T05:27:40.894Z,19.90
2022-10-14T05:30:10.094Z,19.20
2022-10-14T05:32:41.302Z,18.50
2022-10-14T05:35:09.623Z,17.50
2022-10-14T05:37:39.533Z,23.00
2022-10-14T05:40:08.829Z,15.00
2022-10-14T05:42:37.729Z,29.50
2022-10-14T05:45:07.008Z,20.00
2022-10-14T05:50:13.375Z,14.90
2022-10-14T05:52:43.113Z,16.50
2022-10-14T05:55:16.864Z,16.50
2022-10-14T05:57:46.159Z,15.50
2022-10-14T06:00:24.721Z,13.60
2022-10-14T06:02:56.964Z,16.10
2022-10-14T06:05:25.513Z,18.70
2022-10-14T06:07:53.761Z,17.70
2022-10-14T06:10:21.694Z,19.50
2022-10-14T06:12:49.698Z,20.40
2022-10-14T06:15:17.452Z,17.80
2022-10-14T06:17:45.385Z,20.00
2022-10-14T06:20:13.223Z,19.30
2022-10-14T06:22:41.464Z,21.80
2022-10-14T06:25:09.849Z,22.90
2022-10-14T06:27:37.617Z,16.30
2022-10-14T06:30:06.389Z,14.80
2022-10-14T06:32:34.152Z,19.70
2022-10-14T06:35:02.367Z,17.20
2022-10-14T06:37:30.086Z,18.80
2022-10-14T06:39:58.078Z,25.00
2022-10-14T06:42:26.610Z,18.80
2022-10-14T06:44:54.684Z,21.50
2022-10-14T06:47:22.480Z,21.10
2022-10-14T06:49:50.349Z,21.40
2022-10-14T06:52:18.320Z,17.60
2022-10-14T06:54:48.449Z,23.60
2022-10-14T06:57:17.044Z,17.60
2022-10-14T06:59:45.180Z,18.70
2022-10-14T07:02:13.063Z,19.50
2022-10-14T07:04:41.234Z,32.20
2022-10-14T07:07:09.380Z,34.40
2022-10-14T07:09:37.393Z,19.80
2022-10-14T07:12:05.215Z,19.80
2022-10-14T07:14:33.108Z,22.60
2022-10-14T07:17:01.146Z,19.10
2022-10-14T07:19:28.923Z,19.30
2022-10-14T07:21:56.810Z,18.00
2022-10-14T07:24:24.898Z,23.10
2022-10-14T07:26:52.906Z,19.30
2022-10-14T07:29:20.730Z,15.80
2022-10-14T07:31:48.581Z,19.40
2022-10-14T07:34:16.756Z,17.10
2022-10-14T07:36:44.724Z,16.40
2022-10-14T07:39:13.253Z,17.10
2022-10-14T07:41:41.119Z,18.00
2022-10-14T07:44:12.982Z,15.90
2022-10-14T07:46:43.447Z,19.60
2022-10-14T07:49:14.383Z,18.20
2022-10-14T07:51:43.122Z,17.40
2022-10-14T07:54:17.854Z,16.70
2022-10-14T07:56:46.886Z,19.40
2022-10-14T07:59:15.693Z,15.90
2022-10-14T08:01:45.780Z,22.20
2022-10-14T08:04:13.994Z,15.90
2022-10-14T08:06:42.233Z,19.80
2022-10-14T08:09:11.829Z,20.90
2022-10-14T08:11:40.056Z,27.20
2022-10-14T08:14:07.907Z,23.30
2022-10-14T08:16:36.473Z,22.90
2022-10-14T08:19:13.422Z,22.30
2022-10-14T08:21:43.549Z,23.40
2022-10-14T08:24:11.864Z,23.20
2022-10-14T08:26:49.007Z,19.40
2022-10-14T08:29:17.237Z,19.80
2022-10-14T08:31:45.126Z,20.00
2022-10-14T08:34:12.953Z,20.90
2022-10-14T08:36:41.227Z,21.90
2022-10-14T08:42:02.358Z,23.50
2022-10-14T08:44:55.507Z,22.70
2022-10-14T08:47:30.504Z,18.50
2022-10-14T08:50:04.768Z,27.00
2022-10-14T08:52:40.853Z,20.30
2022-10-14T08:55:23.963Z,24.70
2022-10-14T08:58:01.666Z,20.10
2022-10-14T09:00:32.262Z,18.60
2022-10-14T09:03:10.410Z,26.60
2022-10-14T09:05:39.675Z,28.30
2022-10-14T09:08:16.222Z,23.60
2022-10-14T09:10:44.831Z,25.50
2022-10-14T09:13:27.543Z,23.70
2022-10-14T09:16:02.844Z,24.00
2022-10-14T09:18:45.190Z,22.50
2022-10-14T09:21:51.585Z,22.60
2022-10-14T09:24:35.778Z,25.90
2022-10-14T09:27:11.666Z,28.80
2022-10-14T09:29:53.785Z,21.20
2022-10-14T09:32:30.838Z,23.80
2022-10-14T09:34:59.865Z,26.10
2022-10-14T09:37:28.915Z,23.60
2022-10-14T09:40:02.326Z,30.10
2022-10-14T09:42:49.157Z,21.40
2022-10-14T09:45:22.795Z,20.70
2022-10-14T09:47:59.484Z,20.40
2022-10-14T09:50:36.117Z,22.20
2022-10-14T09:53:10.813Z,25.20
2022-10-14T09:55:53.384Z,20.80
2022-10-14T09:58:33.126Z,18.30
2022-10-14T10:01:02.466Z,25.00
2022-10-14T10:03:35.652Z,17.00
2022-10-14T10:06:08.456Z,20.50
2022-10-14T10:08:53.970Z,20.90
2022-10-14T10:11:29.528Z,17.60
2022-10-14T10:13:58.067Z,23.90
2022-10-14T10:16:31.344Z,23.60
2022-10-14T10:19:35.840Z,18.50
2022-10-14T10:22:26.688Z,18.90
2022-10-14T10:25:01.190Z,19.20
2022-10-14T10:27:35.573Z,23.20
2022-10-14T10:30:12.698Z,20.40
2022-10-14T10:32:47.112Z,28.10
2022-10-14T10:35:29.796Z,24.30
2022-10-14T10:38:21.925Z,18.10
2022-10-14T10:41:22.652Z,20.20
2022-10-14T10:44:12.280Z,17.50
2022-10-14T10:46:46.084Z,14.80
2022-10-14T10:49:32.790Z,22.90
2022-10-14T10:52:08.851Z,21.40
2022-10-14T10:55:10.514Z,17.40
2022-10-14T10:57:46.697Z,24.30
2022-10-14T11:00:21.216Z,16.50
2022-10-14T11:03:34.115Z,18.60
2022-10-14T11:06:13.041Z,16.20
2022-10-14T11:09:12.657Z,14.30
2022-10-14T11:12:13.900Z,14.30
2022-10-14T11:15:03.988Z,18.60
2022-10-14T11:18:09.132Z,19.10
2022-10-14T11:20:40.270Z,17.60
2022-10-14T11:23:19.400Z,15.30
2022-10-14T11:26:02.838Z,17.80
2022-10-14T11:28:42.932Z,19.80
2022-10-14T11:31:33.771Z,26.50
2022-10-14T11:34:19.981Z,16.10
2022-10-14T11:37:03.124Z,14.60
2022-10-14T11:39:42.695Z,16.70
2022-10-14T11:42:26.381Z,19.40
2022-10-14T11:45:26.524Z,27.00
2022-10-14T11:48:10.328Z,15.50
2022-10-14T11:50:45.129Z,17.60
2022-10-14T11:56:34.765Z,27.30
2022-10-14T11:59:52.922Z,21.10
2022-10-14T12:02:50.663Z,16.30
2022-10-14T12:05:25.769Z,21.90
2022-10-14T12:08:05.763Z,16.80
2022-10-14T12:10:48.068Z,15.40
2022-10-14T12:13:20.659Z,21.40
2022-10-14T12:15:53.221Z,14.80
2022-10-14T12:18:21.916Z,18.00
2022-10-14T12:21:13.923Z,17.30
2022-10-14T12:23:55.674Z,17.90
2022-10-14T12:26:23.703Z,14.90
2022-10-14T12:28:54.089Z,17.70
2022-10-14T12:31:47.991Z,15.30
2022-10-14T12:34:25.362Z,17.90
2022-10-14T12:36:53.193Z,15.20
2022-10-14T12:39:31.946Z,21.30
2022-10-14T12:42:26.365Z,19.70
2022-10-14T12:44:58.637Z,17.30
2022-10-14T12:47:35.137Z,21.40
2022-10-14T12:50:22.940Z,18.20
2022-10-14T12:53:02.073Z,15.20
2022-10-14T12:55:49.067Z,21.40
2022-10-14T12:58:24.782Z,17.50
2022-10-14T13:00:56.035Z,18.20
2022-10-14T13:03:31.068Z,23.40
2022-10-14T13:06:35.617Z,14.80
2022-10-14T13:09:12.437Z,19.20
2022-10-14T13:11:42.374Z,24.00
2022-10-14T13:14:25.450Z,21.90
2022-10-14T13:16:53.149Z,16.20
2022-10-14T13:19:33.370Z,14.80
2022-10-14T13:22:22.894Z,15.10
2022-10-14T13:24:51.934Z,19.20
2022-10-14T13:27:33.315Z,25.20
2022-10-14T13:30:06.152Z,20.50
2022-10-14T13:32:39.909Z,15.30
2022-10-14T13:35:32.186Z,19.90
2022-10-14T13:38:06.690Z,13.10
2022-10-14T13:40:39.003Z,13.10
2022-10-14T13:43:13.044Z,16.50
2022-10-14T13:45:45.388Z,10.40
2022-10-14T13:48:17.199Z,11.30
2022-10-14T13:50:50.572Z,17.60
2022-10-14T13:53:21.890Z,16.30
2022-10-14T13:55:54.597Z,16.50
2022-10-14T13:58:24.492Z,13.60
2022-10-14T14:01:02.359Z,13.70
2022-10-14T14:03:36.818Z,22.40
2022-10-14T14:06:15.235Z,12.00
2022-10-14T14:09:19.107Z,12.90
2022-10-14T14:11:49.398Z,18.40
2022-10-14T14:14:23.533Z,17.10
2022-10-14T14:16:59.761Z,11.70
2022-10-14T14:19:34.229Z,15.90
2022-10-14T14:22:29.482Z,14.90
2022-10-14T14:25:46.786Z,15.90
2022-10-14T14:28:17.282Z,14.00
2022-10-14T14:30:55.110Z,13.20
2022-10-14T14:33:43.096Z,13.20
2022-10-14T14:36:27.792Z,18.10
2022-10-14T14:39:06.247Z,15.50
2022-10-14T14:41:34.628Z,12.40
2022-10-14T14:44:25.567Z,13.90
2022-10-14T14:46:58.388Z,11.60
2022-10-14T14:49:30.539Z,14.90
2022-10-14T14:52:01.108Z,12.60
2022-10-14T14:54:29.805Z,15.50
2022-10-14T14:57:01.350Z,13.70
2022-10-14T14:59:42.315Z,13.50
2022-10-14T15:02:22.513Z,22.10
2022-10-14T15:05:11.646Z,15.10
2022-10-14T15:07:43.807Z,12.50
2022-10-14T15:10:24.172Z,26.20
2022-10-14T15:12:56.441Z,14.30
2022-10-14T15:15:34.434Z,18.00
2022-10-14T15:18:26.221Z,26.60
2022-10-14T15:21:12.383Z,10.90
2022-10-14T15:23:42.377Z,18.60
2022-10-14T15:26:24.382Z,20.50
2022-10-14T15:29:06.719Z,24.50
2022-10-14T15:31:36.412Z,28.50
2022-10-14T15:34:05.279Z,20.40
2022-10-14T15:36:34.938Z,27.40
2022-10-14T15:39:03.058Z,34.70
2022-10-14T15:41:31.026Z,33.00
2022-10-14T15:43:58.778Z,20.10
2022-10-14T15:47:01.985Z,22.40
2022-10-14T15:49:38.157Z,23.40
2022-10-14T15:52:05.905Z,21.00
2022-10-14T15:54:33.981Z,27.00
2022-10-14T15:57:02.152Z,26.10
2022-10-14T15:59:30.031Z,28.60
2022-10-14T16:01:59.074Z,27.90
2022-10-14T16:04:28.931Z,24.30
2022-10-14T16:06:57.794Z,23.00
2022-10-14T16:09:29.131Z,31.80
2022-10-14T16:11:59.711Z,30.30
2022-10-14T16:14:27.969Z,38.40
2022-10-14T16:16:55.844Z,40.50
2022-10-14T16:19:23.699Z,46.00
2022-10-14T16:21:51.449Z,47.60
2022-10-14T16:24:25.442Z,55.70
2022-10-14T16:26:54.262Z,46.90
2022-10-14T16:29:22.071Z,56.90
2022-10-14T16:31:51.118Z,63.30
2022-10-14T16:34:22.723Z,83.30
2022-10-14T16:36:51.759Z,110.20
2022-10-14T16:39:20.078Z,100.80
2022-10-14T16:41:49.870Z,93.30
2022-10-14T16:44:27.583Z,79.60
2022-10-14T16:47:16.108Z,72.90
2022-10-14T16:49:45.954Z,55.30
2022-10-14T16:52:14.757Z,60.20
2022-10-14T16:54:42.912Z,60.80
2022-10-14T16:57:11.266Z,56.80
2022-10-14T16:59:39.631Z,49.60
2022-10-14T17:02:11.334Z,45.60
2022-10-14T17:04:46.676Z,54.20
2022-10-14T17:07:17.491Z,52.00
2022-10-14T17:12:14.272Z,46.00
2022-10-14T17:14:43.119Z,42.10
2022-10-14T17:17:12.614Z,50.60
2022-10-14T17:19:41.574Z,50.20
2022-10-14T17:22:09.375Z,60.70
2022-10-14T17:24:42.664Z,96.50
2022-10-14T17:27:11.201Z,111.80
2022-10-14T17:29:39.522Z,105.80
2022-10-14T17:32:07.455Z,83.50
2022-10-14T17:34:35.251Z,70.00
2022-10-14T17:37:05.456Z,72.30
2022-10-14T17:39:33.528Z,65.20
2022-10-14T17:42:01.269Z,59.70
2022-10-14T17:44:29.113Z,65.80
2022-10-14T17:46:57.248Z,48.70
2022-10-14T17:49:25.070Z,41.70
2022-10-14T17:51:52.907Z,44.00
2022-10-14T17:54:20.935Z,40.50
2022-10-14T17:56:48.779Z,52.40
2022-10-14T17:59:16.589Z,53.20
2022-10-14T18:02:01.624Z,59.20
2022-10-14T18:04:32.741Z,54.30
2022-10-14T18:07:01.500Z,60.70
2022-10-14T18:09:29.482Z,66.40
2022-10-14T18:12:13.075Z,67.90
2022-10-14T18:14:41.644Z,65.50
2022-10-14T18:17:12.402Z,86.80
2022-10-14T18:19:41.690Z,134.90
2022-10-14T18:22:11.333Z,136.10
2022-10-14T18:24:39.570Z,138.30
2022-10-14T18:27:07.445Z,127.00
2022-10-14T18:29:35.317Z,119.80
2022-10-14T18:32:04.318Z,85.50
2022-10-14T18:34:32.323Z,74.00
2022-10-14T18:37:00.096Z,66.90
2022-10-14T18:39:27.860Z,63.40
2022-10-14T18:41:55.687Z,53.60
2022-10-14T18:44:23.458Z,59.70
2022-10-14T18:46:51.397Z,63.00
2022-10-14T18:49:19.301Z,53.90
2022-10-14T18:51:47.134Z,53.10
2022-10-14T18:54:17.746Z,50.80
2022-10-14T18:56:45.814Z,58.50
2022-10-14T18:59:19.344Z,49.30
2022-10-14T19:01:52.019Z,54.40
2022-10-14T19:04:22.891Z,53.00
2022-10-14T19:06:51.019Z,48.50
2022-10-14T19:09:21.763Z,63.30
2022-10-14T19:14:18.633Z,52.60
2022-10-14T19:16:47.808Z,56.80
2022-10-14T19:19:18.711Z,61.40
2022-10-14T19:21:54.562Z,51.40
2022-10-14T19:24:22.573Z,56.90
2022-10-14T19:26:50.500Z,53.70
2022-10-14T19:29:18.309Z,54.30
2022-10-14T19:31:46.503Z,62.00
2022-10-14T19:34:16.269Z,53.20
2022-10-14T19:36:44.637Z,55.60
2022-10-14T19:39:15.215Z,57.00
2022-10-14T19:41:44.866Z,48.60
2022-10-14T19:44:14.526Z,51.50
2022-10-14T19:46:44.042Z,45.00
2022-10-14T19:49:13.793Z,48.00
2022-10-14T19:51:42.868Z,57.50
2022-10-14T19:54:12.502Z,57.60
2022-10-14T19:56:41.091Z,70.20
2022-10-14T19:59:09.666Z,58.90
2022-10-14T20:01:37.527Z,53.80
2022-10-14T20:04:05.451Z,52.90
2022-10-14T20:06:35.794Z,51.50
2022-10-14T20:09:05.100Z,51.80
2022-10-14T20:11:34.152Z,55.10
2022-10-14T20:14:02.024Z,52.50
2022-10-14T20:16:30.116Z,47.30
2022-10-14T20:18:58.668Z,46.70
2022-10-14T20:21:26.880Z,44.70
2022-10-14T20:23:54.821Z,50.30
2022-10-14T20:26:22.630Z,46.80
2022-10-14T20:28:51.284Z,53.50
2022-10-14T20:31:22.042Z,43.30
2022-10-14T20:33:49.945Z,49.80
2022-10-14T20:36:20.531Z,40.80
2022-10-14T20:38:50.434Z,36.00
2022-10-14T20:41:24.973Z,43.70
2022-10-14T20:43:54.245Z,45.60
2022-10-14T20:46:24.707Z,42.00
2022-10-14T20:48:57.426Z,45.30
2022-10-14T20:51:27.165Z,34.70
2022-10-14T20:54:01.644Z,44.60
2022-10-14T20:56:33.752Z,38.70
2022-10-14T20:59:05.278Z,35.30
2022-10-14T21:01:36.801Z,34.20
2022-10-14T21:04:07.397Z,34.90
2022-10-14T21:06:36.255Z,32.40
2022-10-14T21:09:04.977Z,35.60
2022-10-14T21:11:33.016Z,32.40
2022-10-14T21:14:01.697Z,33.10
2022-10-14T21:16:35.723Z,37.90
2022-10-14T21:19:09.257Z,29.00
2022-10-14T21:21:41.611Z,28.90
2022-10-14T21:24:14.539Z,28.90
2022-10-14T21:26:42.509Z,28.20
2022-10-14T21:29:10.644Z,33.30
2022-10-14T21:31:39.241Z,30.40
2022-10-14T21:34:07.541Z,31.30
2022-10-14T21:36:36.544Z,29.40
2022-10-14T21:39:13.340Z,32.30
2022-10-14T21:41:42.214Z,35.20
2022-10-14T21:44:14.661Z,36.10
2022-10-14T21:46:42.651Z,30.00
2022-10-14T21:49:10.951Z,31.40
2022-10-14T21:51:39.372Z,32.40
2022-10-14T21:54:07.761Z,30.60
2022-10-14T21:56:35.593Z,28.70
2022-10-14T21:59:04.444Z,40.30
2022-10-14T22:01:32.325Z,29.30
2022-10-14T22:04:05.979Z,29.70
2022-10-14T22:06:36.085Z,31.30
2022-10-14T22:09:07.012Z,32.00
2022-10-14T22:14:12.281Z,28.70
2022-10-14T22:16:40.807Z,28.30
2022-10-14T22:19:10.580Z,29.80
2022-10-14T22:21:40.703Z,31.90
2022-10-14T22:24:09.749Z,29.20
2022-10-14T22:26:38.107Z,24.80
2022-10-14T22:29:10.717Z,26.30
2022-10-14T22:31:38.816Z,30.60
2022-10-14T22:34:08.224Z,25.70
2022-10-14T22:36:36.901Z,30.50
2022-10-14T22:39:08.984Z,30.80
2022-10-14T22:41:36.788Z,26.40
2022-10-14T22:44:05.868Z,24.20
2022-10-14T22:46:35.913Z,26.60
2022-10-14T22:49:04.566Z,26.10
2022-10-14T22:51:36.314Z,22.80
2022-10-14T22:54:04.440Z,25.80
2022-10-14T22:56:32.549Z,24.40
2022-10-14T22:59:03.516Z,24.30
2022-10-14T23:01:31.679Z,24.70
2022-10-14T23:04:00.972Z,19.20
2022-10-14T23:06:30.182Z,27.00
2022-10-14T23:09:00.592Z,24.50
2022-10-14T23:11:30.101Z,23.40
2022-10-14T23:14:00.290Z,24.70
2022-10-14T23:16:30.960Z,21.00
2022-10-14T23:18:59.467Z,23.40
2022-10-14T23:21:32.084Z,21.80
2022-10-14T23:24:02.881Z,24.10
2022-10-14T23:26:33.315Z,24.30
2022-10-14T23:29:04.040Z,22.90
2022-10-14T23:34:03.335Z,28.50
2022-10-14T23:36:31.297Z,28.60
2022-10-14T23:38:59.573Z,27.00
2022-10-14T23:41:28.017Z,24.80
2022-10-14T23:43:56.831Z,19.60
2022-10-14T23:46:24.669Z,18.90
2022-10-14T23:49:06.690Z,23.70
2022-10-14T23:51:35.842Z,22.30
2022-10-14T23:54:04.540Z,23.80
2022-10-14T23:56:32.638Z,20.40
2022-10-14T23:59:00.540Z,22.70
